Terminal Aerodrome Forecast
Issued by NWS

Home | Current Version | Previous Version | Text Only | Print | Product List | Glossary On
Versions: 1 2 3 4 5 6 7 8 9 10 11 12 13 14
000
FTUS44 KLIX 020522
TAFMSY
TAF
KMSY 020522Z 0206/0306 21005KT P6SM OVC150
     FM021300 22007KT P6SM SCT025
     FM021700 22010KT P6SM SCT035=

USA.gov is the U.S. government's official web portal to all federal, state and local government web resources and services.